Ashby, Minnesota
Current Conditions -  °F | °C
As of 6:17 PM on Wednesday 28 Jan 2015 (Local Time) from KY63 Reporting Station
Moderate Fog Moderate Fog  
Wind Chill: 31°   Ceiling: 200
Heat Index: 31°   Visibility: 0.25mi
Dew Point: 31°   Wind: 3mph
Humidity: 100%   Direction: 250°WSW
Pressure: 29.82"   Gusts: NA
Location:  46.09°N, 95.82°W
Report Text: KY63 290017Z AUTO 25003KT 1/4SM FZFG OVC002 00/00 A2982 RMK AO2 T10051005
Loading
Personal Weather Stations






























Interactive Weather Map New forecast layout! Learn more

10-Day Weather Forecast

Advertisements
Track Severe Weather on mobile